Hosford, FL (32334)

7:58 AM EDT on August 25, 2016 (GMT -0400)
LAKE TALQUIN | | Change Station

Elev 75 ft 30.40 °N, 84.63 °W | Updated 30 seconds ago

Partly Cloudy
Partly Cloudy
77.7 °F
Feels Like 80 °F
N
3.7
Wind Variable Wind from ESE

Today
High -- | Low -- °F
--% Chance of Precip.
Yesterday
High -- | Low -- °F
Precip. -- in
Pressure 30.13 in
Visibility 10.0 miles
Clouds Few 25000 ft
Heat Index 80 °F
Dew Point 74 °F
Humidity 88%
Rainfall 0.00 in
Snow Depth Not available.
7:12 AM 8:09 PM
Last Quarter, 46% visible
METAR KTLH 251153Z 04003KT 10SM FEW250 24/22 A3014 RMK AO2 SLP203 7//// T02440222 10267 20244 53015
Pressure 30.13 in
Visibility 10.0 miles
Clouds Few 25000 ft
Heat Index 80 °F
Dew Point 74 °F
Humidity 88%
Rainfall 0.00 in
Snow Depth Not available.
7:12 AM 8:09 PM
Last Quarter, 46% visible
METAR KTLH 251153Z 04003KT 10SM FEW250 24/22 A3014 RMK AO2 SLP203 7//// T02440222 10267 20244 53015

10-Day Weather Forecast

Almanac

Astronomy

Aug. 25, 2016 Rise Set
Actual Time
Civil Twilight
Nautical Twilight
Astronomical Twilight
Moon
Length of Visible Light
Length of Day
Tomorrow will be .
, % of the Moon is Illuminated

Today's Extremes

State Highs State Lows

Community

WunderPhotos

Upload Photos

1,934,821 photos uploaded!

WunderBlog® & News

Nearby

Air Quality

  Air Quality AQ Index Pollutant
Not available.

Snow Depth

Station Depth Elevation

Earthquake Activity

City Distance Mag. Time & Date
Minimum magnitude displayed is 2.5.

Coastal Water Temperatures

Place Temperature

Stations

Nearby Weather Stations

Station Location Temp. Windchill Dew Point Humidity Wind Precip. Elev Updated Type
                   

Watches & Warnings

There are currently no watches in effect.